createdAt,value
2017-11-18T00:01:25.273Z,19.23
2017-11-18T00:03:54.110Z,18.07
2017-11-18T00:06:22.940Z,18.23
2017-11-18T00:08:51.788Z,21.70
2017-11-18T00:11:20.696Z,21.30
2017-11-18T00:13:49.524Z,22.03
2017-11-18T00:16:18.390Z,19.60
2017-11-18T00:18:47.215Z,19.30
2017-11-18T00:21:16.045Z,17.63
2017-11-18T00:23:44.892Z,17.17
2017-11-18T00:26:13.727Z,20.83
2017-11-18T00:28:42.576Z,19.20
2017-11-18T00:31:12.048Z,16.70
2017-11-18T00:33:40.929Z,19.87
2017-11-18T00:36:09.758Z,19.73
2017-11-18T00:38:38.613Z,18.30
2017-11-18T00:41:07.501Z,19.67
2017-11-18T00:43:36.407Z,21.03
2017-11-18T00:46:05.253Z,19.17
2017-11-18T00:48:34.085Z,18.90
2017-11-18T00:51:02.959Z,18.73
2017-11-18T00:53:32.563Z,19.00
2017-11-18T00:56:02.137Z,18.43
2017-11-18T00:58:31.718Z,18.70
2017-11-18T01:01:01.439Z,20.03
2017-11-18T01:03:30.276Z,17.97
2017-11-18T01:05:59.861Z,18.73
2017-11-18T01:08:28.701Z,17.17
2017-11-18T01:10:57.573Z,18.73
2017-11-18T01:13:26.408Z,18.00
2017-11-18T01:15:55.255Z,20.93
2017-11-18T01:18:24.095Z,19.40
2017-11-18T01:20:52.924Z,19.50
2017-11-18T01:23:21.820Z,18.50
2017-11-18T01:25:50.647Z,20.30
2017-11-18T01:28:19.482Z,17.77
2017-11-18T01:30:48.323Z,19.03
2017-11-18T01:33:17.157Z,20.23
2017-11-18T01:35:46.067Z,19.57
2017-11-18T01:38:14.963Z,18.10
2017-11-18T01:40:43.795Z,19.90
2017-11-18T01:43:12.635Z,17.70
2017-11-18T01:45:41.471Z,20.03
2017-11-18T01:48:10.304Z,19.17
2017-11-18T01:50:39.149Z,20.50
2017-11-18T01:53:08.008Z,20.50
2017-11-18T01:55:36.839Z,20.00
2017-11-18T01:58:06.095Z,18.43
2017-11-18T02:00:34.940Z,18.90
2017-11-18T02:03:04.506Z,18.23
2017-11-18T02:05:34.199Z,18.07
2017-11-18T02:08:03.784Z,20.83
2017-11-18T02:10:33.412Z,20.50
2017-11-18T02:13:02.998Z,17.70
2017-11-18T02:15:31.850Z,20.77
2017-11-18T02:18:00.679Z,19.27
2017-11-18T02:20:29.583Z,19.07
2017-11-18T02:22:58.432Z,17.73
2017-11-18T02:25:27.264Z,18.57
2017-11-18T02:27:56.160Z,18.57
2017-11-18T02:30:26.787Z,19.23
2017-11-18T02:32:55.616Z,17.60
2017-11-18T02:35:24.476Z,18.10
2017-11-18T02:37:53.383Z,19.27
2017-11-18T02:40:22.256Z,18.40
2017-11-18T02:42:51.114Z,18.53
2017-11-18T02:45:19.962Z,18.70
2017-11-18T02:47:48.793Z,18.13
2017-11-18T02:50:17.624Z,19.60
2017-11-18T02:52:46.702Z,19.37
2017-11-18T02:55:15.530Z,18.27
2017-11-18T02:57:44.415Z,17.07
2017-11-18T03:00:13.260Z,17.87
2017-11-18T03:02:42.089Z,18.50
2017-11-18T03:05:10.924Z,17.37
2017-11-18T03:07:39.803Z,17.53
2017-11-18T03:10:08.636Z,17.37
2017-11-18T03:12:37.462Z,18.30
2017-11-18T03:15:06.389Z,18.90
2017-11-18T03:17:35.956Z,16.40
2017-11-18T03:20:05.549Z,18.90
2017-11-18T03:22:35.239Z,16.03
2017-11-18T03:25:04.896Z,17.57
2017-11-18T03:27:33.739Z,17.17
2017-11-18T03:30:02.646Z,17.20
2017-11-18T03:32:31.476Z,15.73
2017-11-18T03:35:00.331Z,16.13
2017-11-18T03:37:29.199Z,16.93
2017-11-18T03:39:58.033Z,17.10
2017-11-18T03:42:26.863Z,16.30
2017-11-18T03:44:55.783Z,18.20
2017-11-18T03:47:24.612Z,16.17
2017-11-18T03:49:53.442Z,17.40
2017-11-18T03:52:22.358Z,17.37
2017-11-18T03:54:51.201Z,17.60
2017-11-18T03:57:20.447Z,16.03
2017-11-18T03:59:49.293Z,16.83
2017-11-18T04:02:18.189Z,16.53
2017-11-18T04:04:47.870Z,16.30
2017-11-18T04:07:16.736Z,16.13
2017-11-18T04:09:45.575Z,16.57
2017-11-18T04:12:14.404Z,16.80
2017-11-18T04:14:43.287Z,16.63
2017-11-18T04:17:12.180Z,19.40
2017-11-18T04:19:41.004Z,16.57
2017-11-18T04:22:09.854Z,17.67
2017-11-18T04:24:38.684Z,16.87
2017-11-18T04:27:08.112Z,17.05
2017-11-18T04:29:37.704Z,17.13
2017-11-18T04:32:07.276Z,18.37
2017-11-18T04:34:36.863Z,17.60
2017-11-18T04:37:06.491Z,17.60
2017-11-18T04:39:35.627Z,18.60
2017-11-18T04:42:04.625Z,16.40
2017-11-18T04:44:33.468Z,16.40
2017-11-18T04:47:02.315Z,17.70
2017-11-18T04:49:31.167Z,18.30
2017-11-18T04:51:59.999Z,16.40
2017-11-18T04:54:28.927Z,18.47
2017-11-18T04:56:57.770Z,17.40
2017-11-18T04:59:26.609Z,16.97
2017-11-18T05:01:55.439Z,16.37
2017-11-18T05:04:24.279Z,17.70
2017-11-18T05:06:53.121Z,18.50
2017-11-18T05:09:22.064Z,17.63
2017-11-18T05:11:50.958Z,18.10
2017-11-18T05:14:19.792Z,16.40
2017-11-18T05:16:48.669Z,18.50
2017-11-18T05:19:17.532Z,18.07
2017-11-18T05:21:46.373Z,18.80
2017-11-18T05:24:15.248Z,17.97
2017-11-18T05:26:44.092Z,20.03
2017-11-18T05:29:12.936Z,18.37
2017-11-18T05:31:41.782Z,18.40
2017-11-18T05:34:10.629Z,17.13
2017-11-18T05:36:39.912Z,18.12
2017-11-18T05:39:09.480Z,17.30
2017-11-18T05:41:39.099Z,18.50
2017-11-18T05:44:08.676Z,18.00
2017-11-18T05:46:38.259Z,17.70
2017-11-18T05:49:07.907Z,17.03
2017-11-18T05:51:36.795Z,17.97
2017-11-18T05:54:05.638Z,17.43
2017-11-18T05:56:34.587Z,19.00
2017-11-18T05:59:03.461Z,17.03
2017-11-18T06:01:32.350Z,19.07
2017-11-18T06:04:01.254Z,19.00
2017-11-18T06:06:30.086Z,18.63
2017-11-18T06:08:58.927Z,18.67
2017-11-18T06:11:27.836Z,18.40
2017-11-18T06:13:56.724Z,20.30
2017-11-18T06:16:25.969Z,18.90
2017-11-18T06:18:55.834Z,20.03
2017-11-18T06:21:24.665Z,17.90
2017-11-18T06:23:53.608Z,20.60
2017-11-18T06:26:22.507Z,18.40
2017-11-18T06:28:51.340Z,17.93
2017-11-18T06:31:20.190Z,20.50
2017-11-18T06:33:49.037Z,21.00
2017-11-18T06:36:17.874Z,18.47
2017-11-18T06:38:46.759Z,19.27
2017-11-18T06:41:15.620Z,19.80
2017-11-18T06:43:44.452Z,20.57
2017-11-18T06:46:13.304Z,19.10
2017-11-18T06:48:42.151Z,21.43
2017-11-18T06:51:11.271Z,19.08
2017-11-18T06:53:40.862Z,19.90
2017-11-18T06:56:10.459Z,18.10
2017-11-18T06:58:40.043Z,18.93
2017-11-18T07:01:09.619Z,21.30
2017-11-18T07:03:38.463Z,20.53
2017-11-18T07:06:07.316Z,20.27
2017-11-18T07:08:36.165Z,22.20
2017-11-18T07:11:05.013Z,21.20
2017-11-18T07:13:33.846Z,25.13
2017-11-18T07:16:02.787Z,20.73
2017-11-18T07:18:31.636Z,24.40
2017-11-18T07:21:00.466Z,25.20
2017-11-18T07:23:29.391Z,22.37
2017-11-18T07:25:58.255Z,22.23
2017-11-18T07:28:27.136Z,20.83
2017-11-18T07:30:55.969Z,22.97
2017-11-18T07:33:24.813Z,22.27
2017-11-18T07:35:53.643Z,22.50
2017-11-18T07:38:22.480Z,24.37
2017-11-18T07:40:51.524Z,24.47
2017-11-18T07:43:20.352Z,22.57
2017-11-18T07:45:49.180Z,23.40
2017-11-18T07:48:18.020Z,23.07
2017-11-18T07:50:46.862Z,21.80
2017-11-18T07:53:15.755Z,25.33
2017-11-18T07:55:44.600Z,25.40
2017-11-18T07:58:13.522Z,23.13
2017-11-18T08:00:43.036Z,23.23
2017-11-18T08:03:12.620Z,25.73
2017-11-18T08:05:42.196Z,23.00
2017-11-18T08:08:11.778Z,24.80
2017-11-18T08:10:41.367Z,23.57
2017-11-18T08:13:10.274Z,23.70
2017-11-18T08:15:39.139Z,24.70
2017-11-18T08:18:08.040Z,23.20
2017-11-18T08:20:36.929Z,22.70
2017-11-18T08:23:05.820Z,26.30
2017-11-18T08:25:34.654Z,25.13
2017-11-18T08:28:03.496Z,25.17
2017-11-18T08:30:32.333Z,25.70
2017-11-18T08:33:01.170Z,24.53
2017-11-18T08:35:30.015Z,26.13
2017-11-18T08:37:58.952Z,27.53
2017-11-18T08:40:27.849Z,24.33
2017-11-18T08:42:56.681Z,26.67
2017-11-18T08:45:25.524Z,30.67
2017-11-18T08:47:54.359Z,28.17
2017-11-18T08:50:23.180Z,30.83
2017-11-18T08:52:52.467Z,29.83
2017-11-18T08:55:21.399Z,28.37
2017-11-18T08:57:50.228Z,30.00
2017-11-18T09:00:19.075Z,28.70
2017-11-18T09:02:47.917Z,27.93
2017-11-18T09:05:16.745Z,30.90
2017-11-18T09:07:45.588Z,30.23
2017-11-18T09:10:14.865Z,32.90
2017-11-18T09:12:44.469Z,33.03
2017-11-18T09:15:14.061Z,35.17
2017-11-18T09:17:43.643Z,33.13
2017-11-18T09:20:13.218Z,30.50
2017-11-18T09:22:42.176Z,31.73
2017-11-18T09:25:11.006Z,32.80
2017-11-18T09:27:39.860Z,31.27
2017-11-18T09:30:08.710Z,30.07
2017-11-18T09:32:37.631Z,27.97
2017-11-18T09:35:06.468Z,29.03
2017-11-18T09:37:35.411Z,26.93
2017-11-18T09:40:04.308Z,27.30
2017-11-18T09:42:33.180Z,27.30
2017-11-18T09:45:02.029Z,26.87
2017-11-18T09:47:30.886Z,26.70
2017-11-18T09:49:59.711Z,24.93
2017-11-18T09:52:28.671Z,26.10
2017-11-18T09:54:57.501Z,26.30
2017-11-18T09:57:26.336Z,24.40
2017-11-18T09:59:55.176Z,25.03
2017-11-18T10:02:24.012Z,23.90
2017-11-18T10:04:52.848Z,24.07
2017-11-18T10:07:21.691Z,28.07
2017-11-18T10:09:50.599Z,23.40
2017-11-18T10:12:19.478Z,23.50
2017-11-18T10:14:48.323Z,25.20
2017-11-18T10:17:17.163Z,20.80
2017-11-18T10:19:46.663Z,22.80
2017-11-18T10:22:16.259Z,22.40
2017-11-18T10:24:45.841Z,22.20
2017-11-18T10:27:15.418Z,20.57
2017-11-18T10:29:45.099Z,22.20
2017-11-18T10:32:13.996Z,20.93
2017-11-18T10:34:42.831Z,22.40
2017-11-18T10:37:11.680Z,21.90
2017-11-18T10:39:40.520Z,19.93
2017-11-18T10:42:09.968Z,20.57
2017-11-18T10:44:38.816Z,19.80
2017-11-18T10:47:07.648Z,20.40
2017-11-18T10:49:36.472Z,19.53
2017-11-18T10:52:05.316Z,20.83
2017-11-18T10:54:34.149Z,21.42
2017-11-18T10:57:02.996Z,20.50
2017-11-18T10:59:31.852Z,19.10
2017-11-18T11:02:00.680Z,21.70
2017-11-18T11:04:29.508Z,19.30
2017-11-18T11:06:58.348Z,19.30
2017-11-18T11:09:32.085Z,17.90
2017-11-18T11:12:00.929Z,19.07
2017-11-18T11:14:29.755Z,18.37
2017-11-18T11:16:58.608Z,18.50
2017-11-18T11:19:27.451Z,16.93
2017-11-18T11:21:56.323Z,17.90
2017-11-18T11:24:25.169Z,17.13
2017-11-18T11:26:54.006Z,17.33
2017-11-18T11:29:22.886Z,17.57
2017-11-18T11:31:51.732Z,16.50
2017-11-18T11:34:20.589Z,17.43
2017-11-18T11:36:49.436Z,18.53
2017-11-18T11:39:18.275Z,17.60
2017-11-18T11:41:47.860Z,17.73
2017-11-18T11:44:17.454Z,17.10
2017-11-18T11:46:47.071Z,18.47
2017-11-18T11:49:16.671Z,17.80
2017-11-18T11:51:46.245Z,17.50
2017-11-18T11:54:15.086Z,17.83
2017-11-18T11:56:43.936Z,19.57
2017-11-18T11:59:12.783Z,17.60
2017-11-18T12:01:41.626Z,18.00
2017-11-18T12:04:10.518Z,19.00
2017-11-18T12:06:39.467Z,18.03
2017-11-18T12:09:08.321Z,18.10
2017-11-18T12:11:37.164Z,24.07
2017-11-18T12:14:06.107Z,21.53
2017-11-18T12:16:34.943Z,20.13
2017-11-18T12:19:03.895Z,19.50
2017-11-18T12:21:32.784Z,18.00
2017-11-18T12:24:01.667Z,19.13
2017-11-18T12:26:30.529Z,19.30
2017-11-18T12:28:59.365Z,18.03
2017-11-18T12:31:28.226Z,17.93
2017-11-18T12:33:57.132Z,17.00
2017-11-18T12:36:25.969Z,17.87
2017-11-18T12:38:54.812Z,16.40
2017-11-18T12:41:23.700Z,18.47
2017-11-18T12:43:52.585Z,18.00
2017-11-18T12:46:21.408Z,17.43
2017-11-18T12:48:50.258Z,18.70
2017-11-18T12:51:19.118Z,16.70
2017-11-18T12:53:48.758Z,17.37
2017-11-18T12:56:18.347Z,18.43
2017-11-18T12:58:47.980Z,18.50
2017-11-18T13:01:17.577Z,16.50
2017-11-18T13:03:46.435Z,16.70
2017-11-18T13:06:15.263Z,17.40
2017-11-18T13:08:44.087Z,17.23
2017-11-18T13:11:12.970Z,17.80
2017-11-18T13:13:41.799Z,15.83
2017-11-18T13:16:10.628Z,16.70
2017-11-18T13:18:39.525Z,15.63
2017-11-18T13:21:08.411Z,16.47
2017-11-18T13:23:37.242Z,15.00
2017-11-18T13:26:06.193Z,14.00
2017-11-18T13:28:35.025Z,15.80
2017-11-18T13:31:03.851Z,16.57
2017-11-18T13:33:32.705Z,13.93
2017-11-18T13:36:01.536Z,13.93
2017-11-18T13:38:30.367Z,14.70
2017-11-18T13:40:59.826Z,13.93
2017-11-18T13:43:28.664Z,14.50
2017-11-18T13:45:57.504Z,14.27
2017-11-18T13:48:26.352Z,13.23
2017-11-18T13:50:55.196Z,14.87
2017-11-18T13:53:24.470Z,14.07
2017-11-18T13:55:53.316Z,15.43
2017-11-18T13:58:22.156Z,16.00
2017-11-18T14:00:50.997Z,16.93
2017-11-18T14:03:20.448Z,16.50
2017-11-18T14:05:50.037Z,17.33
2017-11-18T14:08:19.707Z,16.43
2017-11-18T14:10:49.311Z,16.20
2017-11-18T14:13:18.892Z,15.00
2017-11-18T14:15:47.726Z,15.03
2017-11-18T14:18:16.567Z,13.00
2017-11-18T14:20:45.491Z,13.10
2017-11-18T14:23:14.377Z,12.40
2017-11-18T14:25:43.225Z,13.00
2017-11-18T14:28:12.056Z,14.50
2017-11-18T14:30:40.887Z,12.90
2017-11-18T14:33:09.740Z,13.73
2017-11-18T14:35:38.573Z,12.00
2017-11-18T14:38:07.406Z,11.50
2017-11-18T14:40:36.305Z,12.27
2017-11-18T14:43:05.150Z,13.40
2017-11-18T14:45:34.093Z,12.50
2017-11-18T14:48:02.950Z,13.10
2017-11-18T14:50:31.780Z,14.00
2017-11-18T14:53:00.612Z,13.43
2017-11-18T14:55:29.460Z,13.77
2017-11-18T14:57:58.295Z,14.23
2017-11-18T15:00:27.124Z,12.97
2017-11-18T15:02:55.979Z,13.00
2017-11-18T15:05:24.811Z,14.40
2017-11-18T15:07:53.660Z,12.40
2017-11-18T15:10:22.516Z,19.10
2017-11-18T15:12:51.348Z,13.27
2017-11-18T15:15:35.815Z,13.60
2017-11-18T15:18:10.360Z,12.37
2017-11-18T15:20:45.047Z,12.70
2017-11-18T15:23:30.681Z,12.57
2017-11-18T15:26:05.347Z,29.93
2017-11-18T15:28:39.928Z,20.70
2017-11-18T15:31:14.639Z,14.90
2017-11-18T15:33:53.375Z,18.77
2017-11-18T15:36:28.069Z,38.77
2017-11-18T15:38:59.816Z,24.07
2017-11-18T15:41:28.668Z,33.17
2017-11-18T15:44:03.411Z,52.90
2017-11-18T15:46:50.009Z,16.87
2017-11-18T15:49:25.436Z,16.50
2017-11-18T15:51:56.828Z,20.60
2017-11-18T15:54:40.540Z,20.30
2017-11-18T15:57:10.894Z,16.13
2017-11-18T15:59:39.717Z,11.80
2017-11-18T16:02:10.072Z,17.37
2017-11-18T16:04:39.732Z,19.83
2017-11-18T16:07:08.560Z,18.50
2017-11-18T16:09:37.387Z,15.70
2017-11-18T16:12:06.236Z,14.37
2017-11-18T16:14:35.081Z,13.67
2017-11-18T16:17:03.914Z,12.37
2017-11-18T16:19:32.847Z,13.90
2017-11-18T16:22:01.683Z,13.70
2017-11-18T16:24:30.521Z,11.70
2017-11-18T16:26:59.369Z,12.83
2017-11-18T16:29:28.212Z,14.00
2017-11-18T16:31:57.054Z,12.13
2017-11-18T16:34:25.947Z,13.23
2017-11-18T16:36:54.774Z,12.87
2017-11-18T16:39:23.606Z,11.70
2017-11-18T16:41:52.449Z,13.23
2017-11-18T16:44:22.198Z,12.80
2017-11-18T16:46:51.846Z,13.00
2017-11-18T16:49:21.421Z,12.90
2017-11-18T16:51:51.009Z,15.33
2017-11-18T16:54:20.604Z,12.73
2017-11-18T16:56:50.258Z,13.23
2017-11-18T16:59:19.164Z,13.40
2017-11-18T17:01:48.051Z,14.53
2017-11-18T17:04:16.879Z,14.67
2017-11-18T17:06:45.710Z,16.60
2017-11-18T17:09:14.615Z,16.60
2017-11-18T17:11:43.457Z,15.00
2017-11-18T17:14:12.305Z,15.53
2017-11-18T17:16:41.147Z,15.83
2017-11-18T17:19:10.080Z,15.20
2017-11-18T17:21:39.217Z,14.67
2017-11-18T17:24:08.067Z,16.20
2017-11-18T17:26:36.901Z,17.13
2017-11-18T17:29:05.746Z,17.27
2017-11-18T17:31:34.761Z,15.40
2017-11-18T17:34:03.654Z,15.37
2017-11-18T17:36:32.522Z,13.23
2017-11-18T17:39:01.418Z,15.53
2017-11-18T17:41:30.303Z,15.07
2017-11-18T17:43:59.135Z,14.60
2017-11-18T17:46:27.976Z,14.67
2017-11-18T17:48:56.886Z,13.20
2017-11-18T17:51:25.729Z,14.10
2017-11-18T17:53:54.618Z,12.63
2017-11-18T17:56:23.453Z,12.70
2017-11-18T17:58:52.661Z,13.30
2017-11-18T18:01:22.378Z,11.90
2017-11-18T18:03:51.950Z,11.73
2017-11-18T18:06:21.533Z,12.27
2017-11-18T18:08:51.240Z,11.90
2017-11-18T18:11:20.160Z,12.53
2017-11-18T18:13:49.104Z,12.57
2017-11-18T18:16:17.954Z,12.17
2017-11-18T18:18:46.789Z,13.83
2017-11-18T18:21:15.661Z,11.60
2017-11-18T18:23:44.496Z,10.17
2017-11-18T18:26:13.340Z,10.10
2017-11-18T18:28:42.204Z,10.60
2017-11-18T18:31:11.106Z,10.63
2017-11-18T18:33:39.939Z,9.13
2017-11-18T18:36:08.771Z,8.80
2017-11-18T18:38:37.670Z,8.90
2017-11-18T18:41:06.536Z,9.67
2017-11-18T18:43:35.379Z,9.70
2017-11-18T18:46:04.249Z,8.30
2017-11-18T18:48:33.077Z,9.13
2017-11-18T18:51:01.923Z,8.53
2017-11-18T18:53:30.809Z,8.80
2017-11-18T18:55:59.638Z,8.10
2017-11-18T18:58:28.464Z,7.70
2017-11-18T19:00:57.304Z,9.17
2017-11-18T19:03:26.151Z,8.90
2017-11-18T19:05:55.069Z,7.80
2017-11-18T19:08:23.907Z,8.67
2017-11-18T19:10:53.574Z,8.93
2017-11-18T19:13:23.156Z,8.50
2017-11-18T19:15:52.749Z,8.40
2017-11-18T19:18:22.323Z,8.17
2017-11-18T19:20:51.999Z,9.23
2017-11-18T19:23:20.847Z,8.87
2017-11-18T19:25:49.684Z,7.97
2017-11-18T19:28:18.527Z,7.70
2017-11-18T19:30:47.717Z,7.87
2017-11-18T19:33:16.764Z,8.50
2017-11-18T19:35:45.587Z,15.83
2017-11-18T19:38:14.423Z,8.50
2017-11-18T19:40:43.256Z,9.77
2017-11-18T19:43:12.087Z,8.30
2017-11-18T19:45:40.931Z,9.90
2017-11-18T19:48:09.799Z,9.27
2017-11-18T19:50:38.683Z,9.20
2017-11-18T19:53:07.570Z,9.40
2017-11-18T19:55:36.401Z,7.80
2017-11-18T19:58:05.259Z,8.00
2017-11-18T20:00:34.101Z,7.17
2017-11-18T20:03:02.954Z,7.37
2017-11-18T20:05:31.833Z,7.60
2017-11-18T20:08:00.675Z,8.83
2017-11-18T20:10:29.506Z,8.23
2017-11-18T20:12:58.345Z,8.20
2017-11-18T20:15:27.189Z,10.00
2017-11-18T20:17:56.020Z,8.80
2017-11-18T20:20:24.862Z,9.10
2017-11-18T20:22:54.456Z,13.93
2017-11-18T20:25:24.036Z,7.77
2017-11-18T20:27:53.688Z,8.00
2017-11-18T20:30:23.277Z,8.30
2017-11-18T20:32:52.902Z,8.20
2017-11-18T20:35:21.731Z,8.67
2017-11-18T20:37:50.582Z,8.10
2017-11-18T20:40:19.416Z,7.87
2017-11-18T20:42:48.256Z,7.70
2017-11-18T20:45:17.155Z,10.10
2017-11-18T20:47:45.987Z,8.57
2017-11-18T20:50:14.843Z,8.00
2017-11-18T20:52:43.686Z,6.70
2017-11-18T20:55:12.600Z,7.53
2017-11-18T20:57:41.440Z,8.53
2017-11-18T21:00:10.276Z,6.70
2017-11-18T21:02:39.106Z,6.53
2017-11-18T21:05:07.932Z,6.97
2017-11-18T21:07:36.872Z,6.63
2017-11-18T21:10:05.717Z,6.53
2017-11-18T21:12:34.547Z,6.00
2017-11-18T21:15:03.386Z,6.80
2017-11-18T21:17:32.216Z,6.50
2017-11-18T21:20:01.044Z,6.70
2017-11-18T21:22:29.884Z,6.53
2017-11-18T21:24:58.716Z,6.60
2017-11-18T21:27:27.543Z,6.23
2017-11-18T21:29:56.384Z,7.40
2017-11-18T21:32:25.516Z,7.50
2017-11-18T21:34:55.424Z,5.70
2017-11-18T21:37:25.007Z,7.20
2017-11-18T21:39:54.575Z,6.20
2017-11-18T21:42:24.209Z,7.27
2017-11-18T21:44:53.787Z,6.63
2017-11-18T21:47:22.618Z,6.43
2017-11-18T21:49:51.507Z,6.43
2017-11-18T21:52:20.361Z,5.73
2017-11-18T21:54:49.286Z,6.90
2017-11-18T21:57:18.928Z,7.37
2017-11-18T21:59:47.883Z,6.93
2017-11-18T22:02:16.784Z,6.90
2017-11-18T22:04:45.613Z,7.57
2017-11-18T22:07:14.560Z,6.87
2017-11-18T22:09:44.241Z,6.70
2017-11-18T22:12:13.081Z,6.73
2017-11-18T22:14:41.947Z,6.40
2017-11-18T22:17:10.832Z,6.93
2017-11-18T22:19:39.668Z,6.23
2017-11-18T22:22:08.520Z,6.60
2017-11-18T22:24:37.350Z,6.67
2017-11-18T22:27:06.169Z,7.00
2017-11-18T22:29:35.024Z,7.00
2017-11-18T22:32:03.948Z,6.30
2017-11-18T22:34:32.775Z,7.83
2017-11-18T22:37:01.632Z,6.67
2017-11-18T22:39:30.465Z,7.10
2017-11-18T22:41:59.298Z,7.60
2017-11-18T22:44:28.141Z,6.80
2017-11-18T22:46:57.371Z,7.53
2017-11-18T22:49:26.671Z,7.82
2017-11-18T22:51:56.262Z,7.30
2017-11-18T22:54:25.837Z,7.07
2017-11-18T22:56:55.407Z,7.33
2017-11-18T22:59:24.999Z,7.67
2017-11-18T23:01:53.842Z,7.43
2017-11-18T23:04:22.740Z,6.50
2017-11-18T23:06:51.595Z,7.17
2017-11-18T23:09:20.433Z,7.87
2017-11-18T23:11:49.310Z,6.30
2017-11-18T23:14:18.176Z,8.70
2017-11-18T23:16:47.005Z,6.13
2017-11-18T23:19:15.832Z,6.43
2017-11-18T23:21:44.688Z,7.73
2017-11-18T23:24:13.525Z,6.53
2017-11-18T23:26:42.348Z,6.77
2017-11-18T23:29:11.191Z,6.50
2017-11-18T23:31:40.016Z,6.67
2017-11-18T23:34:08.859Z,7.17
2017-11-18T23:36:37.812Z,7.13
2017-11-18T23:39:06.643Z,7.00
2017-11-18T23:41:35.489Z,6.70
2017-11-18T23:44:04.339Z,6.37
2017-11-18T23:46:33.274Z,6.20
2017-11-18T23:49:02.103Z,6.80
2017-11-18T23:51:30.939Z,6.63
2017-11-18T23:53:59.767Z,7.20
2017-11-18T23:56:28.623Z,7.20
2017-11-18T23:58:57.989Z,7.28
